sensor_id;sensor_type;location;lat;lon;timestamp;P1;durP1;ratioP1;P2;durP2;ratioP2
71821;SDS011;64096;52.548;13.406;2023-07-29T06:02:13;3.78;;;2.95;;
71821;SDS011;64096;52.548;13.406;2023-07-29T06:04:39;4.40;;;3.45;;
71821;SDS011;64096;52.548;13.406;2023-07-29T06:07:05;5.20;;;3.78;;
71821;SDS011;64096;52.548;13.406;2023-07-29T06:09:33;5.45;;;3.60;;
71821;SDS011;64096;52.548;13.406;2023-07-29T06:11:59;4.70;;;3.47;;
71821;SDS011;64096;52.548;13.406;2023-07-29T06:14:25;4.82;;;3.85;;
71821;SDS011;64096;52.548;13.406;2023-07-29T06:16:51;4.55;;;3.30;;
71821;SDS011;64096;52.548;13.406;2023-07-29T06:19:18;4.05;;;3.20;;
71821;SDS011;64096;52.548;13.406;2023-07-29T06:21:44;4.40;;;3.42;;
71821;SDS011;64096;52.548;13.406;2023-07-29T06:24:10;4.25;;;3.28;;
71821;SDS011;64096;52.548;13.406;2023-07-29T06:26:36;3.85;;;3.17;;
71821;SDS011;64096;52.548;13.406;2023-07-29T06:29:02;3.75;;;2.92;;
71821;SDS011;64096;52.548;13.406;2023-07-29T06:31:31;4.32;;;3.17;;
71821;SDS011;64096;52.548;13.406;2023-07-29T06:33:58;3.58;;;2.65;;
71821;SDS011;64096;52.548;13.406;2023-07-29T06:36:24;3.63;;;2.70;;
71821;SDS011;64096;52.548;13.406;2023-07-29T06:38:50;3.08;;;2.20;;
71821;SDS011;64096;52.548;13.406;2023-07-29T06:41:16;3.45;;;2.45;;
71821;SDS011;64096;52.548;13.406;2023-07-29T06:43:42;4.47;;;3.03;;
71821;SDS011;64096;52.548;13.406;2023-07-29T06:46:08;2.97;;;2.40;;
71821;SDS011;64096;52.548;13.406;2023-07-29T06:48:34;2.88;;;2.17;;
71821;SDS011;64096;52.548;13.406;2023-07-29T06:51:00;3.58;;;2.72;;
71821;SDS011;64096;52.548;13.406;2023-07-29T06:53:27;3.35;;;2.70;;
71821;SDS011;64096;52.548;13.406;2023-07-29T06:55:53;3.55;;;2.50;;
71821;SDS011;64096;52.548;13.406;2023-07-29T06:58:19;3.05;;;2.17;;
71821;SDS011;64096;52.548;13.406;2023-07-29T07:00:45;3.30;;;2.53;;
71821;SDS011;64096;52.548;13.406;2023-07-29T07:03:12;3.03;;;2.50;;
71821;SDS011;64096;52.548;13.406;2023-07-29T07:05:38;2.55;;;1.90;;
71821;SDS011;64096;52.548;13.406;2023-07-29T07:08:04;4.55;;;2.55;;
71821;SDS011;64096;52.548;13.406;2023-07-29T07:10:30;3.22;;;2.75;;
71821;SDS011;64096;52.548;13.406;2023-07-29T07:12:56;4.25;;;2.38;;
71821;SDS011;64096;52.548;13.406;2023-07-29T07:15:22;3.08;;;2.25;;
71821;SDS011;64096;52.548;13.406;2023-07-29T07:17:48;2.88;;;2.17;;
71821;SDS011;64096;52.548;13.406;2023-07-29T07:20:14;5.53;;;4.25;;
71821;SDS011;64096;52.548;13.406;2023-07-29T07:22:41;5.03;;;2.60;;
71821;SDS011;64096;52.548;13.406;2023-07-29T07:25:07;3.22;;;2.58;;
71821;SDS011;64096;52.548;13.406;2023-07-29T07:27:33;3.30;;;2.35;;
71821;SDS011;64096;52.548;13.406;2023-07-29T07:29:59;2.97;;;2.17;;
71821;SDS011;64096;52.548;13.406;2023-07-29T07:32:25;3.28;;;2.30;;
71821;SDS011;64096;52.548;13.406;2023-07-29T07:34:52;2.92;;;2.25;;
71821;SDS011;64096;52.548;13.406;2023-07-29T07:37:18;2.72;;;2.10;;
71821;SDS011;64096;52.548;13.406;2023-07-29T07:39:44;5.00;;;3.05;;
71821;SDS011;64096;52.548;13.406;2023-07-29T07:42:10;3.78;;;2.88;;
71821;SDS011;64096;52.548;13.406;2023-07-29T07:44:36;3.22;;;2.65;;
71821;SDS011;64096;52.548;13.406;2023-07-29T07:47:02;3.33;;;2.85;;
71821;SDS011;64096;52.548;13.406;2023-07-29T07:49:28;2.92;;;2.42;;
71821;SDS011;64096;52.548;13.406;2023-07-29T07:51:54;3.50;;;2.60;;
71821;SDS011;64096;52.548;13.406;2023-07-29T07:54:20;3.92;;;2.83;;
71821;SDS011;64096;52.548;13.406;2023-07-29T07:56:46;3.95;;;2.88;;
71821;SDS011;64096;52.548;13.406;2023-07-29T07:59:12;4.07;;;2.90;;
71821;SDS011;64096;52.548;13.406;2023-07-29T08:01:39;4.70;;;3.15;;
71821;SDS011;64096;52.548;13.406;2023-07-29T08:04:05;3.42;;;2.90;;
71821;SDS011;64096;52.548;13.406;2023-07-29T08:06:31;3.70;;;3.03;;
71821;SDS011;64096;52.548;13.406;2023-07-29T08:08:58;3.50;;;3.00;;
71821;SDS011;64096;52.548;13.406;2023-07-29T08:11:25;4.13;;;3.20;;
71821;SDS011;64096;52.548;13.406;2023-07-29T08:13:51;3.28;;;2.70;;
71821;SDS011;64096;52.548;13.406;2023-07-29T08:16:17;4.10;;;3.13;;
71821;SDS011;64096;52.548;13.406;2023-07-29T08:18:43;3.45;;;2.75;;
71821;SDS011;64096;52.548;13.406;2023-07-29T08:21:09;3.58;;;2.63;;
71821;SDS011;64096;52.548;13.406;2023-07-29T08:23:36;3.83;;;2.70;;
71821;SDS011;64096;52.548;13.406;2023-07-29T08:26:03;3.30;;;2.50;;
71821;SDS011;64096;52.548;13.406;2023-07-29T08:28:30;3.45;;;2.78;;
71821;SDS011;64096;52.548;13.406;2023-07-29T08:30:57;3.50;;;2.50;;
71821;SDS011;64096;52.548;13.406;2023-07-29T08:33:23;3.22;;;2.20;;
71821;SDS011;64096;52.548;13.406;2023-07-29T08:35:49;2.90;;;2.17;;
71821;SDS011;64096;52.548;13.406;2023-07-29T08:38:15;3.25;;;2.17;;
71821;SDS011;64096;52.548;13.406;2023-07-29T08:40:45;2.75;;;1.90;;
71821;SDS011;64096;52.548;13.406;2023-07-29T08:43:12;3.15;;;2.00;;
71821;SDS011;64096;52.548;13.406;2023-07-29T08:45:39;2.92;;;2.10;;
71821;SDS011;64096;52.548;13.406;2023-07-29T08:48:09;2.90;;;2.05;;
71821;SDS011;64096;52.548;13.406;2023-07-29T08:50:36;3.38;;;2.17;;
71821;SDS011;64096;52.548;13.406;2023-07-29T08:53:06;2.63;;;2.00;;
71821;SDS011;64096;52.548;13.406;2023-07-29T08:55:32;2.45;;;1.63;;
71821;SDS011;64096;52.548;13.406;2023-07-29T08:57:59;2.45;;;1.83;;
71821;SDS011;64096;52.548;13.406;2023-07-29T09:00:26;2.70;;;2.00;;
71821;SDS011;64096;52.548;13.406;2023-07-29T09:02:52;2.45;;;1.98;;
71821;SDS011;64096;52.548;13.406;2023-07-29T09:05:20;2.47;;;2.03;;
71821;SDS011;64096;52.548;13.406;2023-07-29T09:07:46;2.45;;;1.85;;
71821;SDS011;64096;52.548;13.406;2023-07-29T09:10:13;2.45;;;1.85;;
71821;SDS011;64096;52.548;13.406;2023-07-29T09:12:41;1.92;;;1.58;;
71821;SDS011;64096;52.548;13.406;2023-07-29T09:15:07;2.28;;;1.90;;
71821;SDS011;64096;52.548;13.406;2023-07-29T09:17:34;2.60;;;1.70;;
71821;SDS011;64096;52.548;13.406;2023-07-29T09:20:00;2.33;;;1.77;;
71821;SDS011;64096;52.548;13.406;2023-07-29T09:22:26;2.05;;;1.67;;
71821;SDS011;64096;52.548;13.406;2023-07-29T09:24:53;2.58;;;1.75;;
71821;SDS011;64096;52.548;13.406;2023-07-29T09:27:25;2.53;;;1.98;;
71821;SDS011;64096;52.548;13.406;2023-07-29T09:29:52;2.10;;;1.65;;
71821;SDS011;64096;52.548;13.406;2023-07-29T09:32:22;2.95;;;1.90;;
71821;SDS011;64096;52.548;13.406;2023-07-29T09:34:48;3.13;;;1.80;;
71821;SDS011;64096;52.548;13.406;2023-07-29T09:37:20;2.45;;;1.70;;
71821;SDS011;64096;52.548;13.406;2023-07-29T09:39:47;2.40;;;1.80;;
71821;SDS011;64096;52.548;13.406;2023-07-29T09:42:19;2.20;;;1.70;;
71821;SDS011;64096;52.548;13.406;2023-07-29T09:44:46;3.03;;;2.08;;
71821;SDS011;64096;52.548;13.406;2023-07-29T09:47:18;2.33;;;1.50;;
71821;SDS011;64096;52.548;13.406;2023-07-29T09:49:45;3.10;;;1.98;;
71821;SDS011;64096;52.548;13.406;2023-07-29T09:52:11;2.15;;;1.63;;
71821;SDS011;64096;52.548;13.406;2023-07-29T09:54:37;2.65;;;1.63;;
71821;SDS011;64096;52.548;13.406;2023-07-29T09:57:04;2.15;;;1.73;;
71821;SDS011;64096;52.548;13.406;2023-07-29T09:59:35;2.53;;;1.60;;
71821;SDS011;64096;52.548;13.406;2023-07-29T10:02:01;2.45;;;1.60;;
71821;SDS011;64096;52.548;13.406;2023-07-29T10:04:27;2.25;;;1.70;;
71821;SDS011;64096;52.548;13.406;2023-07-29T10:06:54;2.95;;;2.00;;
71821;SDS011;64096;52.548;13.406;2023-07-29T10:09:21;2.28;;;1.70;;
71821;SDS011;64096;52.548;13.406;2023-07-29T10:11:48;3.00;;;1.80;;
71821;SDS011;64096;52.548;13.406;2023-07-29T10:14:15;2.85;;;1.85;;
71821;SDS011;64096;52.548;13.406;2023-07-29T10:16:42;3.00;;;2.20;;
71821;SDS011;64096;52.548;13.406;2023-07-29T10:19:10;2.58;;;1.80;;
71821;SDS011;64096;52.548;13.406;2023-07-29T10:21:38;2.63;;;1.65;;
71821;SDS011;64096;52.548;13.406;2023-07-29T10:24:06;2.33;;;1.60;;
71821;SDS011;64096;52.548;13.406;2023-07-29T10:26:34;2.40;;;1.60;;
71821;SDS011;64096;52.548;13.406;2023-07-29T10:29:01;2.63;;;1.60;;
71821;SDS011;64096;52.548;13.406;2023-07-29T10:31:30;1.77;;;1.38;;
71821;SDS011;64096;52.548;13.406;2023-07-29T10:33:57;3.35;;;1.48;;
71821;SDS011;64096;52.548;13.406;2023-07-29T10:36:23;4.68;;;2.05;;
71821;SDS011;64096;52.548;13.406;2023-07-29T10:38:50;3.65;;;2.33;;
71821;SDS011;64096;52.548;13.406;2023-07-29T10:41:16;2.67;;;1.80;;
71821;SDS011;64096;52.548;13.406;2023-07-29T10:43:42;2.22;;;1.58;;
71821;SDS011;64096;52.548;13.406;2023-07-29T10:48:51;2.47;;;1.50;;
71821;SDS011;64096;52.548;13.406;2023-07-29T10:53:47;3.75;;;2.17;;
71821;SDS011;64096;52.548;13.406;2023-07-29T10:56:13;3.83;;;2.17;;
71821;SDS011;64096;52.548;13.406;2023-07-29T10:58:50;2.67;;;1.90;;
71821;SDS011;64096;52.548;13.406;2023-07-29T11:01:34;2.50;;;1.52;;
71821;SDS011;64096;52.548;13.406;2023-07-29T11:04:03;5.93;;;2.88;;
71821;SDS011;64096;52.548;13.406;2023-07-29T11:15:03;1.77;;;1.17;;
71821;SDS011;64096;52.548;13.406;2023-07-29T11:17:30;2.13;;;1.30;;
71821;SDS011;64096;52.548;13.406;2023-07-29T11:20:02;2.92;;;1.40;;
71821;SDS011;64096;52.548;13.406;2023-07-29T11:22:29;2.65;;;1.00;;
71821;SDS011;64096;52.548;13.406;2023-07-29T11:24:55;2.90;;;0.93;;
71821;SDS011;64096;52.548;13.406;2023-07-29T11:27:21;1.17;;;0.60;;
71821;SDS011;64096;52.548;13.406;2023-07-29T11:29:47;1.10;;;0.70;;
71821;SDS011;64096;52.548;13.406;2023-07-29T11:32:13;1.40;;;0.60;;
71821;SDS011;64096;52.548;13.406;2023-07-29T11:34:40;1.75;;;0.60;;
71821;SDS011;64096;52.548;13.406;2023-07-29T11:37:06;1.20;;;0.60;;
71821;SDS011;64096;52.548;13.406;2023-07-29T11:39:33;1.13;;;0.55;;
71821;SDS011;64096;52.548;13.406;2023-07-29T11:41:59;2.33;;;1.20;;
71821;SDS011;64096;52.548;13.406;2023-07-29T11:44:25;1.85;;;0.80;;
71821;SDS011;64096;52.548;13.406;2023-07-29T11:46:52;1.08;;;0.55;;
71821;SDS011;64096;52.548;13.406;2023-07-29T11:49:19;2.22;;;0.80;;
71821;SDS011;64096;52.548;13.406;2023-07-29T11:51:45;2.85;;;0.80;;
71821;SDS011;64096;52.548;13.406;2023-07-29T11:54:11;2.15;;;0.80;;
71821;SDS011;64096;52.548;13.406;2023-07-29T11:56:38;3.17;;;1.10;;
71821;SDS011;64096;52.548;13.406;2023-07-29T11:59:04;1.70;;;0.70;;
71821;SDS011;64096;52.548;13.406;2023-07-29T12:01:31;2.90;;;1.15;;
71821;SDS011;64096;52.548;13.406;2023-07-29T12:03:58;1.23;;;0.65;;
71821;SDS011;64096;52.548;13.406;2023-07-29T12:06:25;1.95;;;0.90;;
71821;SDS011;64096;52.548;13.406;2023-07-29T12:08:51;1.75;;;0.70;;
71821;SDS011;64096;52.548;13.406;2023-07-29T12:11:17;3.47;;;1.50;;
71821;SDS011;64096;52.548;13.406;2023-07-29T12:13:43;4.65;;;2.10;;
71821;SDS011;64096;52.548;13.406;2023-07-29T12:16:10;5.95;;;2.83;;
71821;SDS011;64096;52.548;13.406;2023-07-29T12:18:42;7.50;;;3.45;;
71821;SDS011;64096;52.548;13.406;2023-07-29T12:21:08;5.57;;;2.30;;
71821;SDS011;64096;52.548;13.406;2023-07-29T12:23:34;3.88;;;1.70;;
71821;SDS011;64096;52.548;13.406;2023-07-29T12:26:01;4.55;;;1.90;;
71821;SDS011;64096;52.548;13.406;2023-07-29T12:28:28;3.40;;;1.60;;
71821;SDS011;64096;52.548;13.406;2023-07-29T12:30:57;2.78;;;1.10;;
71821;SDS011;64096;52.548;13.406;2023-07-29T12:33:33;2.10;;;1.00;;
71821;SDS011;64096;52.548;13.406;2023-07-29T12:35:59;1.55;;;0.80;;
71821;SDS011;64096;52.548;13.406;2023-07-29T12:38:25;2.28;;;1.05;;
71821;SDS011;64096;52.548;13.406;2023-07-29T12:40:52;2.13;;;0.80;;
71821;SDS011;64096;52.548;13.406;2023-07-29T12:43:18;1.17;;;0.70;;
71821;SDS011;64096;52.548;13.406;2023-07-29T12:45:44;1.88;;;0.90;;
71821;SDS011;64096;52.548;13.406;2023-07-29T12:48:11;1.45;;;0.70;;
71821;SDS011;64096;52.548;13.406;2023-07-29T12:50:37;1.60;;;0.80;;
71821;SDS011;64096;52.548;13.406;2023-07-29T12:53:07;1.52;;;0.90;;
71821;SDS011;64096;52.548;13.406;2023-07-29T12:55:36;1.92;;;1.08;;
71821;SDS011;64096;52.548;13.406;2023-07-29T12:58:02;1.92;;;1.10;;
71821;SDS011;64096;52.548;13.406;2023-07-29T13:00:28;2.15;;;1.15;;
71821;SDS011;64096;52.548;13.406;2023-07-29T13:02:54;2.50;;;1.40;;
71821;SDS011;64096;52.548;13.406;2023-07-29T13:05:21;2.25;;;1.30;;
71821;SDS011;64096;52.548;13.406;2023-07-29T13:07:47;3.10;;;1.80;;
71821;SDS011;64096;52.548;13.406;2023-07-29T13:10:13;3.05;;;1.60;;
71821;SDS011;64096;52.548;13.406;2023-07-29T13:12:39;2.42;;;1.42;;
71821;SDS011;64096;52.548;13.406;2023-07-29T13:15:06;2.33;;;1.52;;
71821;SDS011;64096;52.548;13.406;2023-07-29T13:17:32;2.83;;;1.77;;
71821;SDS011;64096;52.548;13.406;2023-07-29T13:19:58;2.38;;;1.50;;
71821;SDS011;64096;52.548;13.406;2023-07-29T13:22:25;3.05;;;1.80;;
71821;SDS011;64096;52.548;13.406;2023-07-29T13:24:51;1.67;;;1.30;;
71821;SDS011;64096;52.548;13.406;2023-07-29T13:27:17;2.08;;;1.33;;
71821;SDS011;64096;52.548;13.406;2023-07-29T13:29:43;2.60;;;1.73;;
71821;SDS011;64096;52.548;13.406;2023-07-29T13:32:09;3.53;;;1.60;;
71821;SDS011;64096;52.548;13.406;2023-07-29T13:34:35;3.08;;;1.20;;
71821;SDS011;64096;52.548;13.406;2023-07-29T13:37:01;3.88;;;1.80;;
71821;SDS011;64096;52.548;13.406;2023-07-29T13:39:27;2.45;;;1.48;;
71821;SDS011;64096;52.548;13.406;2023-07-29T13:41:54;2.50;;;1.55;;
71821;SDS011;64096;52.548;13.406;2023-07-29T13:44:20;2.03;;;1.30;;
71821;SDS011;64096;52.548;13.406;2023-07-29T13:46:46;2.28;;;1.30;;
71821;SDS011;64096;52.548;13.406;2023-07-29T13:49:12;1.80;;;1.20;;
71821;SDS011;64096;52.548;13.406;2023-07-29T13:51:38;2.28;;;1.60;;
71821;SDS011;64096;52.548;13.406;2023-07-29T13:54:04;2.05;;;1.30;;
71821;SDS011;64096;52.548;13.406;2023-07-29T13:56:30;2.55;;;1.40;;
71821;SDS011;64096;52.548;13.406;2023-07-29T13:58:56;1.17;;;1.00;;
